sensor_id;sensor_type;location;lat;lon;timestamp;pressure;altitude;pressure_sealevel;temperature;humidity
5988;BME280;3021;51.000;6.980;2023-04-22T00:00:47;67372.09;;;9.63;100.00
5988;BME280;3021;51.000;6.980;2023-04-22T00:03:13;67373.25;;;9.64;100.00
5988;BME280;3021;51.000;6.980;2023-04-22T00:05:39;67378.31;;;9.66;100.00
5988;BME280;3021;51.000;6.980;2023-04-22T00:08:06;67373.69;;;9.62;100.00
5988;BME280;3021;51.000;6.980;2023-04-22T00:10:31;67381.91;;;9.72;100.00
5988;BME280;3021;51.000;6.980;2023-04-22T00:12:57;67374.41;;;9.65;100.00
5988;BME280;3021;51.000;6.980;2023-04-22T00:15:24;67371.38;;;9.60;100.00
5988;BME280;3021;51.000;6.980;2023-04-22T00:17:56;67363.59;;;9.58;100.00
5988;BME280;3021;51.000;6.980;2023-04-22T00:20:22;67367.91;;;9.57;100.00
5988;BME280;3021;51.000;6.980;2023-04-22T00:22:50;67368.63;;;9.60;100.00
5988;BME280;3021;51.000;6.980;2023-04-22T00:25:16;67368.06;;;9.59;100.00
5988;BME280;3021;51.000;6.980;2023-04-22T00:27:41;67370.81;;;9.59;100.00
5988;BME280;3021;51.000;6.980;2023-04-22T00:30:07;67369.22;;;9.60;100.00
5988;BME280;3021;51.000;6.980;2023-04-22T00:32:33;67368.63;;;9.60;100.00
5988;BME280;3021;51.000;6.980;2023-04-22T00:34:59;67376.31;;;9.69;100.00
5988;BME280;3021;51.000;6.980;2023-04-22T00:37:24;67383.50;;;9.71;100.00
5988;BME280;3021;51.000;6.980;2023-04-22T00:39:50;67376.16;;;9.66;100.00
5988;BME280;3021;51.000;6.980;2023-04-22T00:42:15;67379.03;;;9.69;100.00
5988;BME280;3021;51.000;6.980;2023-04-22T00:44:45;67373.84;;;9.64;100.00
5988;BME280;3021;51.000;6.980;2023-04-22T00:47:11;67369.22;;;9.60;100.00
5988;BME280;3021;51.000;6.980;2023-04-22T00:49:37;67369.22;;;9.60;100.00
5988;BME280;3021;51.000;6.980;2023-04-22T00:52:03;67369.81;;;9.61;100.00
5988;BME280;3021;51.000;6.980;2023-04-22T00:54:28;67370.81;;;9.59;100.00
5988;BME280;3021;51.000;6.980;2023-04-22T00:56:55;67368.47;;;9.57;100.00
5988;BME280;3021;51.000;6.980;2023-04-22T00:59:22;67369.06;;;9.58;100.00
5988;BME280;3021;51.000;6.980;2023-04-22T01:01:50;67367.47;;;9.59;100.00
5988;BME280;3021;51.000;6.980;2023-04-22T01:04:16;67367.91;;;9.57;100.00
5988;BME280;3021;51.000;6.980;2023-04-22T01:06:42;67367.47;;;9.59;100.00
5988;BME280;3021;51.000;6.980;2023-04-22T01:09:08;67366.19;;;9.55;100.00
5988;BME280;3021;51.000;6.980;2023-04-22T01:11:34;67360.00;;;9.52;100.00
5988;BME280;3021;51.000;6.980;2023-04-22T01:14:01;67358.81;;;9.51;100.00
5988;BME280;3021;51.000;6.980;2023-04-22T01:16:26;67354.34;;;9.49;100.00
5988;BME280;3021;51.000;6.980;2023-04-22T01:18:53;67355.94;;;9.48;100.00
5988;BME280;3021;51.000;6.980;2023-04-22T01:21:18;67357.09;;;9.49;100.00
5988;BME280;3021;51.000;6.980;2023-04-22T01:23:44;67355.94;;;9.48;100.00
5988;BME280;3021;51.000;6.980;2023-04-22T01:26:10;67356.09;;;9.51;100.00
5988;BME280;3021;51.000;6.980;2023-04-22T01:28:35;67357.09;;;9.49;100.00
5988;BME280;3021;51.000;6.980;2023-04-22T01:31:01;67361.88;;;9.56;100.00
5988;BME280;3021;51.000;6.980;2023-04-22T01:33:27;67370.81;;;9.59;100.00
5988;BME280;3021;51.000;6.980;2023-04-22T01:35:52;67369.06;;;9.58;100.00
5988;BME280;3021;51.000;6.980;2023-04-22T01:38:18;67365.19;;;9.57;100.00
5988;BME280;3021;51.000;6.980;2023-04-22T01:40:43;67364.59;;;9.56;100.00
5988;BME280;3021;51.000;6.980;2023-04-22T01:43:08;67363.44;;;9.55;100.00
5988;BME280;3021;51.000;6.980;2023-04-22T01:45:34;67362.28;;;9.54;100.00
5988;BME280;3021;51.000;6.980;2023-04-22T01:47:59;67366.34;;;9.58;100.00
5988;BME280;3021;51.000;6.980;2023-04-22T01:50:25;67368.06;;;9.59;100.00
5988;BME280;3021;51.000;6.980;2023-04-22T01:52:50;67365.91;;;9.60;100.00
5988;BME280;3021;51.000;6.980;2023-04-22T01:55:16;67374.13;;;9.60;100.00
5988;BME280;3021;51.000;6.980;2023-04-22T01:57:41;67372.53;;;9.61;100.00
5988;BME280;3021;51.000;6.980;2023-04-22T02:00:07;67369.22;;;9.60;100.00
5988;BME280;3021;51.000;6.980;2023-04-22T02:02:33;67370.97;;;9.62;100.00
5988;BME280;3021;51.000;6.980;2023-04-22T02:04:58;67376.72;;;9.67;100.00
5988;BME280;3021;51.000;6.980;2023-04-22T02:07:24;67372.84;;;9.66;100.00
5988;BME280;3021;51.000;6.980;2023-04-22T02:09:50;67378.44;;;9.68;100.00
5988;BME280;3021;51.000;6.980;2023-04-22T02:12:15;67384.81;;;9.74;100.00
5988;BME280;3021;51.000;6.980;2023-04-22T02:14:40;67389.44;;;9.78;100.00
5988;BME280;3021;51.000;6.980;2023-04-22T02:17:06;67403.00;;;9.85;100.00
5988;BME280;3021;51.000;6.980;2023-04-22T02:19:31;67387.28;;;9.79;100.00
5988;BME280;3021;51.000;6.980;2023-04-22T02:21:56;67388.84;;;9.78;100.00
5988;BME280;3021;51.000;6.980;2023-04-22T02:24:22;67388.25;;;9.77;100.00
5988;BME280;3021;51.000;6.980;2023-04-22T02:26:47;67381.50;;;9.74;100.00
5988;BME280;3021;51.000;6.980;2023-04-22T02:29:13;67384.25;;;9.74;100.00
5988;BME280;3021;51.000;6.980;2023-04-22T02:31:38;67382.50;;;9.72;100.00
5988;BME280;3021;51.000;6.980;2023-04-22T02:34:04;67383.66;;;9.73;100.00
5988;BME280;3021;51.000;6.980;2023-04-22T02:36:29;67384.81;;;9.74;100.00
5988;BME280;3021;51.000;6.980;2023-04-22T02:38:56;67383.66;;;9.73;100.00
5988;BME280;3021;51.000;6.980;2023-04-22T02:41:21;67385.41;;;9.75;100.00
5988;BME280;3021;51.000;6.980;2023-04-22T02:43:47;67387.69;;;9.77;100.00
5988;BME280;3021;51.000;6.980;2023-04-22T02:46:13;67387.13;;;9.76;100.00
5988;BME280;3021;51.000;6.980;2023-04-22T02:48:42;67390.03;;;9.79;100.00
5988;BME280;3021;51.000;6.980;2023-04-22T02:51:07;67395.22;;;9.83;100.00
5988;BME280;3021;51.000;6.980;2023-04-22T02:53:33;67400.97;;;9.89;100.00
5988;BME280;3021;51.000;6.980;2023-04-22T02:55:59;67409.06;;;9.96;100.00
5988;BME280;3021;51.000;6.980;2023-04-22T02:58:24;67411.94;;;9.98;100.00
5988;BME280;3021;51.000;6.980;2023-04-22T03:00:52;67415.41;;;10.01;100.00
5988;BME280;3021;51.000;6.980;2023-04-22T03:03:18;67409.22;;;9.98;100.00
5988;BME280;3021;51.000;6.980;2023-04-22T03:05:43;67417.44;;;9.98;100.00
5988;BME280;3021;51.000;6.980;2023-04-22T03:08:09;67419.31;;;10.02;100.00
5988;BME280;3021;51.000;6.980;2023-04-22T03:10:34;67422.22;;;10.05;100.00
5988;BME280;3021;51.000;6.980;2023-04-22T03:13:00;67427.41;;;10.10;100.00
5988;BME280;3021;51.000;6.980;2023-04-22T03:15:25;67428.72;;;10.13;100.00
5988;BME280;3021;51.000;6.980;2023-04-22T03:17:50;67432.75;;;10.17;100.00
5988;BME280;3021;51.000;6.980;2023-04-22T03:20:16;67434.91;;;10.16;100.00
5988;BME280;3021;51.000;6.980;2023-04-22T03:22:41;67429.84;;;10.14;100.00
5988;BME280;3021;51.000;6.980;2023-04-22T03:25:09;67432.75;;;10.17;100.00
5988;BME280;3021;51.000;6.980;2023-04-22T03:27:34;67433.91;;;10.18;100.00
5988;BME280;3021;51.000;6.980;2023-04-22T03:29:59;67433.34;;;10.17;100.00
5988;BME280;3021;51.000;6.980;2023-04-22T03:32:25;67432.19;;;10.16;100.00
5988;BME280;3021;51.000;6.980;2023-04-22T03:34:53;67435.63;;;10.19;100.00
5988;BME280;3021;51.000;6.980;2023-04-22T03:37:18;67443.72;;;10.27;100.00
5988;BME280;3021;51.000;6.980;2023-04-22T03:39:43;67455.75;;;10.35;100.00
5988;BME280;3021;51.000;6.980;2023-04-22T03:42:10;67456.47;;;10.38;100.00
5988;BME280;3021;51.000;6.980;2023-04-22T03:44:35;67459.19;;;10.38;100.00
5988;BME280;3021;51.000;6.980;2023-04-22T03:47:00;67462.09;;;10.41;100.00
5988;BME280;3021;51.000;6.980;2023-04-22T03:49:28;67465.13;;;10.46;100.00
5988;BME280;3021;51.000;6.980;2023-04-22T03:51:54;67471.47;;;10.51;100.00
5988;BME280;3021;51.000;6.980;2023-04-22T03:54:20;67477.97;;;10.60;100.00
5988;BME280;3021;51.000;6.980;2023-04-22T03:56:45;67483.19;;;10.64;100.00
5988;BME280;3021;51.000;6.980;2023-04-22T03:59:10;67495.88;;;10.76;100.00
5988;BME280;3021;51.000;6.980;2023-04-22T04:01:35;67501.69;;;10.81;100.00
5988;BME280;3021;51.000;6.980;2023-04-22T04:04:01;67515.97;;;10.91;100.00
5988;BME280;3021;51.000;6.980;2023-04-22T04:06:28;67518.88;;;10.94;100.00
5988;BME280;3021;51.000;6.980;2023-04-22T04:08:53;67516.56;;;10.92;100.00
5988;BME280;3021;51.000;6.980;2023-04-22T04:11:18;67509.47;;;10.83;100.00
5988;BME280;3021;51.000;6.980;2023-04-22T04:13:44;67513.69;;;10.89;100.00
5988;BME280;3021;51.000;6.980;2023-04-22T04:16:09;67513.69;;;10.89;100.00
5988;BME280;3021;51.000;6.980;2023-04-22T04:18:34;67512.66;;;10.91;100.00
5988;BME280;3021;51.000;6.980;2023-04-22T04:21:00;67522.34;;;10.97;100.00
5988;BME280;3021;51.000;6.980;2023-04-22T04:23:26;67521.78;;;10.96;100.00
5988;BME280;3021;51.000;6.980;2023-04-22T04:25:51;67522.50;;;10.99;100.00
5988;BME280;3021;51.000;6.980;2023-04-22T04:28:18;67530.88;;;11.02;100.00
5988;BME280;3021;51.000;6.980;2023-04-22T04:30:43;67530.13;;;11.09;100.00
5988;BME280;3021;51.000;6.980;2023-04-22T04:33:08;67541.41;;;11.14;100.00
5988;BME280;3021;51.000;6.980;2023-04-22T04:35:35;67527.84;;;11.06;100.00
5988;BME280;3021;51.000;6.980;2023-04-22T04:38:02;67540.25;;;11.13;100.00
5988;BME280;3021;51.000;6.980;2023-04-22T04:40:29;67533.47;;;11.09;100.00
5988;BME280;3021;51.000;6.980;2023-04-22T04:42:55;67527.25;;;11.06;100.00
5988;BME280;3021;51.000;6.980;2023-04-22T04:45:25;67528.84;;;11.05;100.00
5988;BME280;3021;51.000;6.980;2023-04-22T04:47:51;67528.13;;;11.02;100.00
5988;BME280;3021;51.000;6.980;2023-04-22T04:50:19;67526.41;;;11.00;100.00
5988;BME280;3021;51.000;6.980;2023-04-22T04:52:48;67525.81;;;11.00;100.00
5988;BME280;3021;51.000;6.980;2023-04-22T04:55:14;67535.63;;;11.09;100.00
5988;BME280;3021;51.000;6.980;2023-04-22T04:57:39;67546.47;;;11.16;100.00
5988;BME280;3021;51.000;6.980;2023-04-22T05:00:05;67559.91;;;11.30;100.00
5988;BME280;3021;51.000;6.980;2023-04-22T05:02:31;67572.22;;;11.44;100.00
5988;BME280;3021;51.000;6.980;2023-04-22T05:04:56;67568.16;;;11.40;100.00
5988;BME280;3021;51.000;6.980;2023-04-22T05:07:24;67573.38;;;11.45;100.00
5988;BME280;3021;51.000;6.980;2023-04-22T05:09:50;67581.31;;;11.49;100.00
5988;BME280;3021;51.000;6.980;2023-04-22T05:12:15;67589.97;;;11.57;100.00
5988;BME280;3021;51.000;6.980;2023-04-22T05:14:40;67596.66;;;11.68;100.00
5988;BME280;3021;51.000;6.980;2023-04-22T05:17:06;67609.22;;;11.76;100.00
5988;BME280;3021;51.000;6.980;2023-04-22T05:19:32;67625.84;;;11.89;100.00
5988;BME280;3021;51.000;6.980;2023-04-22T05:21:58;67639.75;;;12.01;100.00
5988;BME280;3021;51.000;6.980;2023-04-22T05:24:23;67654.81;;;12.15;100.00
5988;BME280;3021;51.000;6.980;2023-04-22T05:26:49;67661.91;;;12.23;100.00
5988;BME280;3021;51.000;6.980;2023-04-22T05:29:14;67671.72;;;12.32;100.00
5988;BME280;3021;51.000;6.980;2023-04-22T05:31:39;67686.78;;;12.45;100.00
5988;BME280;3021;51.000;6.980;2023-04-22T05:34:05;67887.63;;;14.22;100.00
5988;BME280;3021;51.000;6.980;2023-04-22T05:36:30;67948.81;;;14.81;100.00
5988;BME280;3021;51.000;6.980;2023-04-22T05:38:56;67907.91;;;14.40;100.00
5988;BME280;3021;51.000;6.980;2023-04-22T05:41:21;67885.00;;;14.24;100.00
5988;BME280;3021;51.000;6.980;2023-04-22T05:43:46;67938.81;;;14.69;100.00
5988;BME280;3021;51.000;6.980;2023-04-22T05:46:12;67919.78;;;14.55;100.00
5988;BME280;3021;51.000;6.980;2023-04-22T05:48:37;67909.78;;;14.44;100.00
5988;BME280;3021;51.000;6.980;2023-04-22T05:51:05;67893.13;;;14.31;100.00
5988;BME280;3021;51.000;6.980;2023-04-22T05:53:31;67895.00;;;14.26;100.00
5988;BME280;3021;51.000;6.980;2023-04-22T05:55:56;67891.97;;;14.30;100.00
5988;BME280;3021;51.000;6.980;2023-04-22T05:58:22;67901.22;;;14.39;100.00
5988;BME280;3021;51.000;6.980;2023-04-22T06:00:47;67887.75;;;14.24;100.00
5988;BME280;3021;51.000;6.980;2023-04-22T06:03:12;67874.44;;;14.12;100.00
5988;BME280;3021;51.000;6.980;2023-04-22T06:05:37;67854.03;;;13.92;100.00
5988;BME280;3021;51.000;6.980;2023-04-22T06:08:03;67837.94;;;13.80;100.00
5988;BME280;3021;51.000;6.980;2023-04-22T06:10:28;67841.53;;;13.86;100.00
5988;BME280;3021;51.000;6.980;2023-04-22T06:12:54;67852.84;;;13.91;100.00
5988;BME280;3021;51.000;6.980;2023-04-22T06:15:20;67849.66;;;13.93;100.00
5988;BME280;3021;51.000;6.980;2023-04-22T06:17:47;67864.44;;;14.01;100.00
5988;BME280;3021;51.000;6.980;2023-04-22T06:20:12;67879.50;;;14.14;100.00
5988;BME280;3021;51.000;6.980;2023-04-22T06:22:38;67882.41;;;14.17;100.00
5988;BME280;3021;51.000;6.980;2023-04-22T06:25:03;67900.09;;;14.38;100.00
5988;BME280;3021;51.000;6.980;2023-04-22T06:27:29;68049.00;;;15.67;100.00
5988;BME280;3021;51.000;6.980;2023-04-22T06:29:54;68330.78;;;18.17;100.00
5988;BME280;3021;51.000;6.980;2023-04-22T06:32:19;68416.16;;;18.90;100.00
5988;BME280;3021;51.000;6.980;2023-04-22T06:34:45;68534.00;;;19.99;100.00
5988;BME280;3021;51.000;6.980;2023-04-22T06:37:10;68661.59;;;21.12;100.00
5988;BME280;3021;51.000;6.980;2023-04-22T06:39:35;68642.25;;;20.93;100.00
5988;BME280;3021;51.000;6.980;2023-04-22T06:42:01;68521.78;;;19.89;100.00
5988;BME280;3021;51.000;6.980;2023-04-22T06:44:26;68482.91;;;19.57;100.00
5988;BME280;3021;51.000;6.980;2023-04-22T06:46:51;68579.31;;;20.37;100.00
5988;BME280;3021;51.000;6.980;2023-04-22T06:49:22;68715.34;;;21.62;100.00
5988;BME280;3021;51.000;6.980;2023-04-22T06:51:48;68509.53;;;19.78;100.00
5988;BME280;3021;51.000;6.980;2023-04-22T06:54:13;68595.75;;;20.54;100.00
5988;BME280;3021;51.000;6.980;2023-04-22T06:56:38;68633.16;;;20.89;100.00
5988;BME280;3021;51.000;6.980;2023-04-22T06:59:07;68661.59;;;21.12;100.00
5988;BME280;3021;51.000;6.980;2023-04-22T07:01:35;68553.81;;;20.17;100.00
5988;BME280;3021;51.000;6.980;2023-04-22T07:04:00;68465.31;;;19.39;100.00
5988;BME280;3021;51.000;6.980;2023-04-22T07:06:25;68403.59;;;18.84;100.00
5988;BME280;3021;51.000;6.980;2023-04-22T07:08:51;68265.81;;;17.62;100.00
5988;BME280;3021;51.000;6.980;2023-04-22T07:11:17;68187.81;;;16.90;100.00
5988;BME280;3021;51.000;6.980;2023-04-22T07:13:43;68212.78;;;17.13;100.00
5988;BME280;3021;51.000;6.980;2023-04-22T07:16:08;68373.34;;;18.57;100.00
5988;BME280;3021;51.000;6.980;2023-04-22T07:18:34;68473.44;;;19.46;100.00
5988;BME280;3021;51.000;6.980;2023-04-22T07:21:03;68486.84;;;19.58;100.00
5988;BME280;3021;51.000;6.980;2023-04-22T07:23:28;68525.28;;;19.92;100.00
5988;BME280;3021;51.000;6.980;2023-04-22T07:25:53;68537.50;;;20.02;100.00
5988;BME280;3021;51.000;6.980;2023-04-22T07:28:19;68480.44;;;19.52;100.00
5988;BME280;3021;51.000;6.980;2023-04-22T07:30:44;68440.88;;;19.17;100.00
5988;BME280;3021;51.000;6.980;2023-04-22T07:33:10;68429.81;;;19.07;100.00
5988;BME280;3021;51.000;6.980;2023-04-22T07:35:35;68418.63;;;18.95;100.00
5988;BME280;3021;51.000;6.980;2023-04-22T07:38:01;68421.09;;;18.99;100.00
5988;BME280;3021;51.000;6.980;2023-04-22T07:40:26;68386.75;;;18.69;100.00
5988;BME280;3021;51.000;6.980;2023-04-22T07:42:52;68451.34;;;19.26;100.00
5988;BME280;3021;51.000;6.980;2023-04-22T07:45:17;68501.25;;;19.68;100.00
5988;BME280;3021;51.000;6.980;2023-04-22T07:47:43;68554.84;;;20.15;100.00
5988;BME280;3021;51.000;6.980;2023-04-22T07:50:09;68595.88;;;20.57;100.00
5988;BME280;3021;51.000;6.980;2023-04-22T07:52:34;68637.13;;;20.91;100.00
5988;BME280;3021;51.000;6.980;2023-04-22T07:55:01;68697.72;;;21.44;100.00
5988;BME280;3021;51.000;6.980;2023-04-22T07:57:26;68790.44;;;22.26;100.00
5988;BME280;3021;51.000;6.980;2023-04-22T07:59:51;68845.97;;;22.77;100.00
5988;BME280;3021;51.000;6.980;2023-04-22T08:02:17;68765.38;;;22.04;100.00
5988;BME280;3021;51.000;6.980;2023-04-22T08:04:42;68647.03;;;20.99;100.00
5988;BME280;3021;51.000;6.980;2023-04-22T08:07:08;68691.31;;;21.38;100.00
5988;BME280;3021;51.000;6.980;2023-04-22T08:09:33;68690.59;;;21.35;100.00
5988;BME280;3021;51.000;6.980;2023-04-22T08:11:58;68648.78;;;21.01;100.00
5988;BME280;3021;51.000;6.980;2023-04-22T08:14:24;68639.19;;;20.87;100.00
5988;BME280;3021;51.000;6.980;2023-04-22T08:16:52;68687.69;;;21.33;100.00
5988;BME280;3021;51.000;6.980;2023-04-22T08:21:43;68656.34;;;21.08;100.00
5988;BME280;3021;51.000;6.980;2023-04-22T08:24:09;68710.00;;;21.55;100.00
5988;BME280;3021;51.000;6.980;2023-04-22T08:26:35;68730.38;;;21.73;100.00
5988;BME280;3021;51.000;6.980;2023-04-22T08:29:01;68778.66;;;22.13;100.00
5988;BME280;3021;51.000;6.980;2023-04-22T08:31:26;68902.47;;;23.25;100.00
5988;BME280;3021;51.000;6.980;2023-04-22T08:33:52;68974.91;;;23.89;100.00
5988;BME280;3021;51.000;6.980;2023-04-22T08:36:20;69008.75;;;24.19;100.00
5988;BME280;3021;51.000;6.980;2023-04-22T08:38:48;68865.59;;;22.90;100.00
5988;BME280;3021;51.000;6.980;2023-04-22T08:41:14;68758.34;;;21.98;100.00
5988;BME280;3021;51.000;6.980;2023-04-22T08:43:40;68756.59;;;21.96;100.00
5988;BME280;3021;51.000;6.980;2023-04-22T08:46:05;68701.81;;;21.48;100.00
5988;BME280;3021;51.000;6.980;2023-04-22T08:48:31;68782.75;;;22.17;100.00
5988;BME280;3021;51.000;6.980;2023-04-22T08:50:57;68919.41;;;23.40;100.00
5988;BME280;3021;51.000;6.980;2023-04-22T08:53:22;69197.78;;;25.90;100.00
5988;BME280;3021;51.000;6.980;2023-04-22T08:55:48;69187.72;;;25.79;100.00
5988;BME280;3021;51.000;6.980;2023-04-22T08:58:14;69171.22;;;25.62;100.00
5988;BME280;3021;51.000;6.980;2023-04-22T09:00:42;69521.88;;;28.70;100.00
5988;BME280;3021;51.000;6.980;2023-04-22T09:03:08;69508.97;;;28.59;100.00
5988;BME280;3021;51.000;6.980;2023-04-22T09:05:36;69319.25;;;26.92;100.00
5988;BME280;3021;51.000;6.980;2023-04-22T09:08:02;69137.94;;;25.32;100.00
5988;BME280;3021;51.000;6.980;2023-04-22T09:10:30;69158.38;;;25.50;100.00
5988;BME280;3021;51.000;6.980;2023-04-22T09:12:57;69167.72;;;25.59;100.00
5988;BME280;3021;51.000;6.980;2023-04-22T09:15:28;69293.59;;;26.72;100.00
5988;BME280;3021;51.000;6.980;2023-04-22T09:17:53;69438.56;;;27.94;100.00
5988;BME280;3021;51.000;6.980;2023-04-22T09:20:27;69491.41;;;28.43;100.00
5988;BME280;3021;51.000;6.980;2023-04-22T09:22:55;69746.47;;;30.67;100.00
5988;BME280;3021;51.000;6.980;2023-04-22T09:25:25;69956.63;;;32.52;93.17
5988;BME280;3021;51.000;6.980;2023-04-22T09:27:58;69691.41;;;30.22;98.98
5988;BME280;3021;51.000;6.980;2023-04-22T09:30:34;70121.88;;;33.99;90.46
5988;BME280;3021;51.000;6.980;2023-04-22T09:33:03;70138.34;;;34.14;84.37
5988;BME280;3021;51.000;6.980;2023-04-22T09:35:39;70240.69;;;35.03;78.61
5988;BME280;3021;51.000;6.980;2023-04-22T09:38:07;70361.91;;;36.09;75.99
5988;BME280;3021;51.000;6.980;2023-04-22T09:40:33;69637.94;;;29.72;87.87
5988;BME280;3021;51.000;6.980;2023-04-22T09:43:05;69677.72;;;30.05;93.80
5988;BME280;3021;51.000;6.980;2023-04-22T09:48:01;69340.78;;;27.08;100.00
5988;BME280;3021;51.000;6.980;2023-04-22T09:50:27;69082.28;;;24.81;100.00
5988;BME280;3021;51.000;6.980;2023-04-22T09:53:09;69131.94;;;25.25;100.00
5988;BME280;3021;51.000;6.980;2023-04-22T09:55:38;69179.41;;;25.69;100.00
5988;BME280;3021;51.000;6.980;2023-04-22T09:58:15;69353.78;;;27.22;100.00
5988;BME280;3021;51.000;6.980;2023-04-22T10:03:09;69179.41;;;25.69;100.00
5988;BME280;3021;51.000;6.980;2023-04-22T10:05:34;69144.94;;;25.39;100.00
5988;BME280;3021;51.000;6.980;2023-04-22T10:08:06;69362.66;;;27.33;100.00
5988;BME280;3021;51.000;6.980;2023-04-22T10:10:32;69536.53;;;28.83;100.00
5988;BME280;3021;51.000;6.980;2023-04-22T10:12:58;69691.91;;;30.20;97.93
5988;BME280;3021;51.000;6.980;2023-04-22T10:15:24;69841.53;;;31.51;94.25
5988;BME280;3021;51.000;6.980;2023-04-22T10:17:52;69888.50;;;31.92;89.00
5988;BME280;3021;51.000;6.980;2023-04-22T10:20:19;69599.84;;;29.39;94.00
5988;BME280;3021;51.000;6.980;2023-04-22T10:22:46;69389.59;;;27.56;100.00
5988;BME280;3021;51.000;6.980;2023-04-22T10:25:22;69301.59;;;26.74;100.00
5988;BME280;3021;51.000;6.980;2023-04-22T10:28:02;69370.19;;;27.37;100.00
5988;BME280;3021;51.000;6.980;2023-04-22T10:30:30;69466.22;;;28.21;100.00
5988;BME280;3021;51.000;6.980;2023-04-22T10:41:05;70049.50;;;33.33;90.15
5988;BME280;3021;51.000;6.980;2023-04-22T10:43:47;70194.81;;;34.63;87.34
5988;BME280;3021;51.000;6.980;2023-04-22T10:48:58;70226.56;;;34.91;74.18
5988;BME280;3021;51.000;6.980;2023-04-22T10:51:43;70147.75;;;34.22;76.73
5988;BME280;3021;51.000;6.980;2023-04-22T10:59:32;69818.63;;;31.31;85.74
5988;BME280;3021;51.000;6.980;2023-04-22T11:02:05;69633.84;;;29.69;87.31
5988;BME280;3021;51.000;6.980;2023-04-22T11:04:31;69487.31;;;28.40;91.61
5988;BME280;3021;51.000;6.980;2023-04-22T11:09:43;69187.50;;;25.74;100.00
5988;BME280;3021;51.000;6.980;2023-04-22T11:15:16;69301.59;;;26.74;100.00
5988;BME280;3021;51.000;6.980;2023-04-22T11:17:44;69328.03;;;27.00;100.00
5988;BME280;3021;51.000;6.980;2023-04-22T11:20:14;69250.19;;;26.31;100.00
5988;BME280;3021;51.000;6.980;2023-04-22T11:22:46;69195.69;;;25.81;100.00
5988;BME280;3021;51.000;6.980;2023-04-22T11:25:12;69284.59;;;26.59;100.00
5988;BME280;3021;51.000;6.980;2023-04-22T11:27:38;69273.59;;;26.52;100.00
5988;BME280;3021;51.000;6.980;2023-04-22T11:30:09;69197.53;;;25.85;100.00
5988;BME280;3021;51.000;6.980;2023-04-22T11:32:40;69069.41;;;24.70;100.00
5988;BME280;3021;51.000;6.980;2023-04-22T11:35:08;68983.53;;;23.94;100.00
5988;BME280;3021;51.000;6.980;2023-04-22T11:37:42;68919.28;;;23.37;100.00
5988;BME280;3021;51.000;6.980;2023-04-22T11:40:09;68923.38;;;23.41;100.00
5988;BME280;3021;51.000;6.980;2023-04-22T11:42:35;68919.16;;;23.35;100.00
5988;BME280;3021;51.000;6.980;2023-04-22T11:45:01;68876.69;;;23.00;100.00
5988;BME280;3021;51.000;6.980;2023-04-22T11:47:29;68940.31;;;23.56;100.00
5988;BME280;3021;51.000;6.980;2023-04-22T11:50:03;68986.56;;;23.99;100.00
5988;BME280;3021;51.000;6.980;2023-04-22T11:55:30;69043.22;;;24.49;100.00
5988;BME280;3021;51.000;6.980;2023-04-22T11:57:57;69039.03;;;24.43;100.00
5988;BME280;3021;51.000;6.980;2023-04-22T12:00:28;68954.31;;;23.68;100.00
5988;BME280;3021;51.000;6.980;2023-04-22T12:02:55;68992.88;;;24.02;100.00
5988;BME280;3021;51.000;6.980;2023-04-22T12:05:50;69025.59;;;24.31;100.00
5988;BME280;3021;51.000;6.980;2023-04-22T12:08:17;69051.28;;;24.54;100.00
5988;BME280;3021;51.000;6.980;2023-04-22T12:10:51;69031.53;;;24.39;100.00
5988;BME280;3021;51.000;6.980;2023-04-22T12:13:21;69051.28;;;24.54;100.00
5988;BME280;3021;51.000;6.980;2023-04-22T12:15:47;69043.22;;;24.49;100.00
5988;BME280;3021;51.000;6.980;2023-04-22T12:18:13;69047.88;;;24.53;100.00
5988;BME280;3021;51.000;6.980;2023-04-22T12:20:40;69025.00;;;24.30;100.00
5988;BME280;3021;51.000;6.980;2023-04-22T12:23:13;68980.16;;;23.93;100.00
5988;BME280;3021;51.000;6.980;2023-04-22T12:25:40;69012.25;;;24.22;100.00
5988;BME280;3021;51.000;6.980;2023-04-22T12:28:06;68988.91;;;24.01;100.00
5988;BME280;3021;51.000;6.980;2023-04-22T12:30:31;68913.47;;;23.32;100.00
5988;BME280;3021;51.000;6.980;2023-04-22T12:32:57;68928.63;;;23.45;100.00
5988;BME280;3021;51.000;6.980;2023-04-22T12:35:22;68925.59;;;23.40;100.00
5988;BME280;3021;51.000;6.980;2023-04-22T12:37:47;68923.97;;;23.41;100.00
5988;BME280;3021;51.000;6.980;2023-04-22T12:40:13;68956.19;;;23.72;100.00
5988;BME280;3021;51.000;6.980;2023-04-22T12:42:38;68994.75;;;24.06;100.00
5988;BME280;3021;51.000;6.980;2023-04-22T12:45:04;69010.38;;;24.18;100.00
5988;BME280;3021;51.000;6.980;2023-04-22T12:47:30;68994.75;;;24.06;100.00
5988;BME280;3021;51.000;6.980;2023-04-22T12:49:55;68977.25;;;23.91;100.00
5988;BME280;3021;51.000;6.980;2023-04-22T12:52:22;68950.84;;;23.65;100.00
5988;BME280;3021;51.000;6.980;2023-04-22T12:54:48;68991.84;;;24.04;100.00
5988;BME280;3021;51.000;6.980;2023-04-22T12:57:13;69065.44;;;24.69;100.00
5988;BME280;3021;51.000;6.980;2023-04-22T12:59:39;69074.78;;;24.77;100.00
5988;BME280;3021;51.000;6.980;2023-04-22T13:02:04;69034.81;;;24.37;100.00
5988;BME280;3021;51.000;6.980;2023-04-22T13:04:30;69016.94;;;24.26;100.00
5988;BME280;3021;51.000;6.980;2023-04-22T13:06:55;69067.78;;;24.71;100.00
5988;BME280;3021;51.000;6.980;2023-04-22T13:09:22;69064.88;;;24.68;100.00
5988;BME280;3021;51.000;6.980;2023-04-22T13:11:48;69066.50;;;24.67;100.00
5988;BME280;3021;51.000;6.980;2023-04-22T13:14:13;69084.16;;;24.85;100.00
5988;BME280;3021;51.000;6.980;2023-04-22T13:16:39;69040.88;;;24.47;100.00
5988;BME280;3021;51.000;6.980;2023-04-22T13:19:05;68983.53;;;23.94;100.00
5988;BME280;3021;51.000;6.980;2023-04-22T13:21:30;68966.69;;;23.81;100.00
5988;BME280;3021;51.000;6.980;2023-04-22T13:23:56;68936.22;;;23.52;100.00
5988;BME280;3021;51.000;6.980;2023-04-22T13:26:21;68923.38;;;23.41;100.00
5988;BME280;3021;51.000;6.980;2023-04-22T13:28:47;68936.22;;;23.52;100.00
5988;BME280;3021;51.000;6.980;2023-04-22T13:31:12;68884.97;;;23.09;100.00
5988;BME280;3021;51.000;6.980;2023-04-22T13:33:37;68835.84;;;22.64;100.00
5988;BME280;3021;51.000;6.980;2023-04-22T13:36:03;68793.09;;;22.23;100.00
5988;BME280;3021;51.000;6.980;2023-04-22T13:38:29;68720.34;;;21.62;100.00
5988;BME280;3021;51.000;6.980;2023-04-22T13:40:54;68566.50;;;20.26;100.00
5988;BME280;3021;51.000;6.980;2023-04-22T13:43:19;68457.63;;;19.29;100.00